createdAt,value
2018-01-08T00:00:55.041Z,95458.55
2018-01-08T00:02:32.321Z,95465.73
2018-01-08T00:04:09.866Z,95431.07
2018-01-08T00:05:46.967Z,95433.65
2018-01-08T00:07:24.135Z,95494.63
2018-01-08T00:09:01.322Z,95491.95
2018-01-08T00:10:37.653Z,95399.18
2018-01-08T00:12:14.359Z,95391.55
2018-01-08T00:13:51.290Z,95317.71
2018-01-08T00:15:30.527Z,95332.66
2018-01-08T00:17:07.568Z,95462.81
2018-01-08T00:18:43.937Z,95402.19
2018-01-08T00:20:20.772Z,95451.66
2018-01-08T00:21:57.518Z,95466.70
2018-01-08T00:23:33.884Z,95375.69
2018-01-08T00:25:10.885Z,95356.38
2018-01-08T00:26:47.292Z,95430.60
2018-01-08T00:28:24.102Z,95451.73
2018-01-08T00:30:01.126Z,95472.72
2018-01-08T00:31:37.619Z,95446.06
2018-01-08T00:33:16.042Z,95497.67
2018-01-08T00:34:53.226Z,95587.48
2018-01-08T00:36:29.654Z,95566.83
2018-01-08T00:38:07.023Z,95430.60
2018-01-08T00:39:44.667Z,95386.81
2018-01-08T00:41:22.010Z,95447.84
2018-01-08T00:42:58.481Z,95541.07
2018-01-08T00:44:35.358Z,95543.66
2018-01-08T00:46:12.197Z,95535.95
2018-01-08T00:47:49.016Z,95525.63
2018-01-08T00:49:25.835Z,95581.39
2018-01-08T00:51:02.606Z,95693.75
2018-01-08T00:52:38.771Z,95753.55
2018-01-08T00:54:15.635Z,95646.86
2018-01-08T00:55:52.509Z,95588.00
2018-01-08T00:57:29.474Z,95566.41
2018-01-08T00:59:06.601Z,95568.14
2018-01-08T01:00:42.926Z,95511.45
2018-01-08T01:02:19.708Z,95467.55
2018-01-08T01:03:56.717Z,95407.30
2018-01-08T01:05:34.020Z,95536.51
2018-01-08T01:07:10.496Z,95564.67
2018-01-08T01:08:47.556Z,95563.83
2018-01-08T01:10:24.365Z,95616.73
2018-01-08T01:12:01.564Z,95537.68
2018-01-08T01:13:38.468Z,95481.39
2018-01-08T01:15:15.828Z,95447.47
2018-01-08T01:16:52.746Z,95534.30
2018-01-08T01:18:30.834Z,95433.18
2018-01-08T01:20:07.115Z,95349.49
2018-01-08T01:21:43.365Z,95347.67
2018-01-08T01:23:20.153Z,95445.31
2018-01-08T01:24:57.449Z,95393.32
2018-01-08T01:26:34.225Z,95301.38
2018-01-08T01:28:11.824Z,95347.67
2018-01-08T01:29:48.598Z,95352.82
2018-01-08T01:31:25.806Z,95466.75
2018-01-08T01:33:03.500Z,95385.92
2018-01-08T01:34:40.344Z,95338.33
2018-01-08T01:36:17.828Z,95375.18
2018-01-08T01:38:01.583Z,95423.28
2018-01-08T01:39:37.829Z,95407.94
2018-01-08T01:41:14.188Z,95398.84
2018-01-08T01:42:52.038Z,95483.55
2018-01-08T01:44:31.014Z,95524.36
2018-01-08T01:46:12.923Z,95343.83
2018-01-08T01:47:49.247Z,95253.31
2018-01-08T01:49:25.467Z,95214.63
2018-01-08T01:51:02.419Z,95256.77
2018-01-08T01:52:39.187Z,95267.07
2018-01-08T01:54:16.027Z,95379.53
2018-01-08T01:55:52.254Z,95471.11
2018-01-08T01:57:29.678Z,95364.41
2018-01-08T01:59:05.917Z,95386.94
2018-01-08T02:00:44.068Z,95442.73
2018-01-08T02:02:21.097Z,95479.23
2018-01-08T02:03:58.145Z,95435.00
2018-01-08T02:05:34.395Z,95388.45
2018-01-08T02:07:10.694Z,95460.38
2018-01-08T02:08:47.678Z,95353.38
2018-01-08T02:10:25.419Z,95404.00
2018-01-08T02:12:02.366Z,95382.16
2018-01-08T02:13:39.341Z,95454.23
2018-01-08T02:15:18.606Z,95367.13
2018-01-08T02:16:55.272Z,95263.14
2018-01-08T02:18:31.694Z,95429.41
2018-01-08T02:20:09.630Z,95448.31
2018-01-08T02:21:46.880Z,95389.86
2018-01-08T02:23:24.654Z,95337.95
2018-01-08T02:25:01.323Z,95343.45
2018-01-08T02:26:39.434Z,95309.09
2018-01-08T02:28:16.421Z,95365.39
2018-01-08T02:29:54.233Z,95370.96
2018-01-08T02:31:31.496Z,95422.53
2018-01-08T02:33:08.203Z,95381.61
2018-01-08T02:34:44.819Z,95362.00
2018-01-08T02:36:21.814Z,95437.11
2018-01-08T02:37:58.290Z,95397.12
2018-01-08T02:39:34.671Z,95308.77
2018-01-08T02:41:10.984Z,95292.04
2018-01-08T02:42:48.400Z,95386.81
2018-01-08T02:44:27.164Z,95484.39
2018-01-08T02:46:04.137Z,95361.83
2018-01-08T02:47:41.761Z,95379.48
2018-01-08T02:49:18.739Z,95446.11
2018-01-08T02:50:55.614Z,95430.60
2018-01-08T02:52:32.392Z,95484.02
2018-01-08T02:54:09.997Z,95564.72
2018-01-08T02:55:48.429Z,95390.66
2018-01-08T02:57:25.530Z,95482.66
2018-01-08T02:59:02.543Z,95461.27
2018-01-08T03:00:40.069Z,95540.87
2018-01-08T03:02:17.362Z,95612.08
2018-01-08T03:03:54.639Z,95503.47
2018-01-08T03:05:31.585Z,95531.21
2018-01-08T03:07:09.280Z,95525.63
2018-01-08T03:08:46.260Z,95457.38
2018-01-08T03:10:24.047Z,95337.91
2018-01-08T03:12:00.455Z,95438.43
2018-01-08T03:13:38.419Z,95541.71
2018-01-08T03:15:17.708Z,95430.35
2018-01-08T03:16:54.914Z,95403.77
2018-01-08T03:18:31.324Z,95493.48
2018-01-08T03:20:08.808Z,95413.91
2018-01-08T03:21:47.236Z,95447.00
2018-01-08T03:23:26.563Z,95454.75
2018-01-08T03:25:02.885Z,95407.61
2018-01-08T03:26:40.457Z,95505.63
2018-01-08T03:28:17.862Z,95492.17
2018-01-08T03:29:55.288Z,95377.94
2018-01-08T03:31:32.104Z,95327.19
2018-01-08T03:33:09.528Z,95350.48
2018-01-08T03:34:49.682Z,95341.38
2018-01-08T03:36:26.114Z,95338.75
2018-01-08T03:38:03.402Z,95303.99
2018-01-08T03:39:40.677Z,95256.82
2018-01-08T03:41:18.381Z,95322.11
2018-01-08T03:42:54.954Z,95453.05
2018-01-08T03:44:31.468Z,95420.42
2018-01-08T03:46:09.640Z,95352.96
2018-01-08T03:47:46.881Z,95279.49
2018-01-08T03:49:25.150Z,95279.12
2018-01-08T03:51:04.200Z,95337.02
2018-01-08T03:52:41.568Z,95330.61
2018-01-08T03:54:17.887Z,95366.66
2018-01-08T03:55:54.810Z,95349.92
2018-01-08T03:57:31.922Z,95481.39
2018-01-08T03:59:09.491Z,95414.38
2018-01-08T04:00:48.514Z,95334.54
2018-01-08T04:02:26.385Z,95426.00
2018-01-08T04:04:04.230Z,95530.92
2018-01-08T04:05:41.075Z,95459.48
2018-01-08T04:07:19.068Z,95477.97
2018-01-08T04:08:56.194Z,95495.64
2018-01-08T04:10:32.568Z,95532.23
2018-01-08T04:12:10.101Z,95472.80
2018-01-08T04:13:46.797Z,95463.80
2018-01-08T04:15:25.915Z,95479.70
2018-01-08T04:17:02.832Z,95545.48
2018-01-08T04:18:39.203Z,95533.87
2018-01-08T04:20:17.208Z,95511.13
2018-01-08T04:21:54.643Z,95431.20
2018-01-08T04:23:31.574Z,95478.47
2018-01-08T04:25:09.234Z,95524.83
2018-01-08T04:26:46.566Z,95553.27
2018-01-08T04:28:22.904Z,95524.83
2018-01-08T04:29:59.759Z,95488.28
2018-01-08T04:31:36.814Z,95472.89
2018-01-08T04:33:14.054Z,95548.91
2018-01-08T04:34:50.884Z,95542.09
2018-01-08T04:36:27.172Z,95492.17
2018-01-08T04:38:03.639Z,95479.28
2018-01-08T04:39:40.507Z,95570.44
2018-01-08T04:41:17.489Z,95642.69
2018-01-08T04:42:54.306Z,95618.64
2018-01-08T04:44:31.425Z,95574.71
2018-01-08T04:46:08.799Z,95512.86
2018-01-08T04:47:45.635Z,95483.17
2018-01-08T04:49:22.711Z,95442.78
2018-01-08T04:50:59.716Z,95418.31
2018-01-08T04:52:36.517Z,95370.45
2018-01-08T04:54:14.177Z,95404.61
2018-01-08T04:55:51.005Z,95369.83
2018-01-08T04:57:27.883Z,95340.53
2018-01-08T04:59:05.261Z,95406.34
2018-01-08T05:00:42.289Z,95506.94
2018-01-08T05:02:19.108Z,95565.27
2018-01-08T05:03:56.028Z,95488.75
2018-01-08T05:05:33.517Z,95482.33
2018-01-08T05:07:11.095Z,95482.80
2018-01-08T05:08:47.387Z,95440.72
2018-01-08T05:10:24.247Z,95388.97
2018-01-08T05:12:00.988Z,95409.34
2018-01-08T05:13:37.765Z,95457.03
2018-01-08T05:15:18.507Z,95502.20
2018-01-08T05:16:54.813Z,95524.83
2018-01-08T05:18:32.140Z,95522.28
2018-01-08T05:20:09.108Z,95520.22
2018-01-08T05:21:46.776Z,95509.02
2018-01-08T05:23:24.505Z,95525.84
2018-01-08T05:25:00.894Z,95547.30
2018-01-08T05:26:37.856Z,95527.03
2018-01-08T05:28:14.769Z,95509.86
2018-01-08T05:29:51.607Z,95566.50
2018-01-08T05:31:28.545Z,95612.55
2018-01-08T05:33:04.895Z,95591.47
2018-01-08T05:34:41.791Z,95557.20
2018-01-08T05:36:19.360Z,95548.95
2018-01-08T05:37:56.166Z,95607.47
2018-01-08T05:39:33.816Z,95678.80
2018-01-08T05:41:10.136Z,95594.98
2018-01-08T05:42:47.825Z,95498.78
2018-01-08T05:44:24.376Z,95444.52
2018-01-08T05:46:01.533Z,95498.73
2018-01-08T05:47:38.405Z,95473.41
2018-01-08T05:49:15.191Z,95441.56
2018-01-08T05:50:53.469Z,95458.30
2018-01-08T05:52:29.806Z,95515.91
2018-01-08T05:54:06.794Z,95508.59
2018-01-08T05:55:44.363Z,95592.27
2018-01-08T05:57:21.138Z,95483.64
2018-01-08T05:58:57.308Z,95409.39
2018-01-08T06:00:35.084Z,95492.27
2018-01-08T06:02:12.862Z,95502.63
2018-01-08T06:03:50.328Z,95590.63
2018-01-08T06:05:26.585Z,95618.13
2018-01-08T06:07:02.801Z,95540.82
2018-01-08T06:08:40.115Z,95472.00
2018-01-08T06:10:16.933Z,95493.16
2018-01-08T06:11:53.662Z,95454.03
2018-01-08T06:13:30.412Z,95446.34
2018-01-08T06:15:06.656Z,95423.05
2018-01-08T06:16:43.848Z,95447.09
2018-01-08T06:18:20.584Z,95417.59
2018-01-08T06:19:56.811Z,95440.38
2018-01-08T06:21:33.111Z,95508.17
2018-01-08T06:23:11.534Z,95588.17
2018-01-08T06:24:49.095Z,95593.80
2018-01-08T06:26:25.357Z,95484.11
2018-01-08T06:28:02.232Z,95463.55
2018-01-08T06:29:40.233Z,95519.37
2018-01-08T06:31:17.185Z,95519.80
2018-01-08T06:32:54.046Z,95640.70
2018-01-08T06:34:30.868Z,95542.09
2018-01-08T06:36:07.356Z,95530.97
2018-01-08T06:37:44.418Z,95464.86
2018-01-08T06:39:21.965Z,95404.66
2018-01-08T06:40:58.502Z,95403.39
2018-01-08T06:42:35.915Z,95409.06
2018-01-08T06:44:13.303Z,95419.63
2018-01-08T06:47:20.685Z,95484.48
2018-01-08T06:48:58.156Z,95503.39
2018-01-08T06:50:35.867Z,95483.72
2018-01-08T06:52:12.763Z,95516.38
2018-01-08T06:53:49.998Z,95462.23
2018-01-08T06:55:27.149Z,95423.61
2018-01-08T06:57:04.094Z,95438.52
2018-01-08T06:58:41.850Z,95552.84
2018-01-08T07:00:18.801Z,95470.73
2018-01-08T07:01:56.648Z,95399.88
2018-01-08T07:03:33.501Z,95366.31
2018-01-08T07:05:10.636Z,95338.47
2018-01-08T07:06:47.520Z,95299.86
2018-01-08T07:08:24.250Z,95268.99
2018-01-08T07:10:00.724Z,95419.67
2018-01-08T07:11:38.527Z,95428.71
2018-01-08T07:13:14.880Z,95457.03
2018-01-08T07:14:52.187Z,95415.02
2018-01-08T07:16:29.434Z,95492.73
2018-01-08T07:18:06.040Z,95437.34
2018-01-08T07:19:43.760Z,95491.42
2018-01-08T07:21:20.115Z,95562.36
2018-01-08T07:22:57.774Z,95497.89
2018-01-08T07:24:34.202Z,95513.42
2018-01-08T07:26:10.531Z,95546.91
2018-01-08T07:27:48.166Z,95602.27
2018-01-08T07:29:25.126Z,95718.53
2018-01-08T07:31:02.034Z,95571.41
2018-01-08T07:32:38.758Z,95518.06
2018-01-08T07:34:16.427Z,95626.52
2018-01-08T07:35:53.360Z,95741.78
2018-01-08T07:37:29.748Z,95654.84
2018-01-08T07:39:07.546Z,95652.72
2018-01-08T07:40:44.775Z,95783.09
2018-01-08T07:42:21.118Z,95891.25
2018-01-08T07:43:59.861Z,95748.63
2018-01-08T07:45:37.206Z,95792.62
2018-01-08T07:47:14.191Z,95827.03
2018-01-08T07:48:51.328Z,95784.45
2018-01-08T07:50:27.687Z,95725.89
2018-01-08T07:52:04.911Z,95868.41
2018-01-08T07:53:41.463Z,95836.52
2018-01-08T07:55:18.269Z,95769.88
2018-01-08T07:56:55.800Z,95793.00
2018-01-08T07:58:32.525Z,95663.86
2018-01-08T08:00:09.491Z,95695.32
2018-01-08T08:01:46.462Z,95839.20
2018-01-08T08:03:23.455Z,95902.40
2018-01-08T08:05:01.530Z,95979.13
2018-01-08T08:06:37.860Z,95993.42
2018-01-08T08:08:15.500Z,95968.91
2018-01-08T08:09:52.478Z,95981.38
2018-01-08T08:11:30.341Z,96025.34
2018-01-08T08:13:06.617Z,96059.91
2018-01-08T08:14:44.020Z,95920.12
2018-01-08T08:16:20.861Z,95916.23
2018-01-08T08:17:58.271Z,95868.95
2018-01-08T08:19:35.552Z,95951.22
2018-01-08T08:21:12.675Z,96089.28
2018-01-08T08:22:49.785Z,95967.64
2018-01-08T08:24:26.902Z,96050.53
2018-01-08T08:26:04.637Z,96150.56
2018-01-08T08:27:41.625Z,96189.84
2018-01-08T08:29:18.524Z,96111.75
2018-01-08T08:30:55.270Z,96004.75
2018-01-08T08:32:32.282Z,96047.52
2018-01-08T08:34:09.103Z,96112.64
2018-01-08T08:35:46.259Z,96102.62
2018-01-08T08:37:23.148Z,95947.36
2018-01-08T08:38:59.484Z,95899.57
2018-01-08T08:40:36.328Z,95900.41
2018-01-08T08:42:12.620Z,95730.34
2018-01-08T08:43:49.798Z,95768.60
2018-01-08T08:45:26.630Z,95747.97
2018-01-08T08:47:03.040Z,95858.23
2018-01-08T08:48:40.054Z,95740.64
2018-01-08T08:50:16.931Z,95677.42
2018-01-08T08:51:54.559Z,95802.66
2018-01-08T08:53:31.491Z,95946.09
2018-01-08T08:55:07.756Z,95892.62
2018-01-08T08:56:45.737Z,95921.06
2018-01-08T08:58:22.198Z,95884.52
2018-01-08T08:59:58.958Z,95906.99
2018-01-08T09:01:35.897Z,95895.25
2018-01-08T09:03:12.832Z,95831.53
2018-01-08T09:04:49.834Z,95799.14
2018-01-08T09:06:26.172Z,95905.59
2018-01-08T09:08:04.033Z,95772.08
2018-01-08T09:09:41.262Z,95689.02
2018-01-08T09:11:18.372Z,95768.27
2018-01-08T09:12:55.264Z,95736.41
2018-01-08T09:14:31.668Z,95832.84
2018-01-08T09:16:08.862Z,95860.81
2018-01-08T09:17:45.775Z,95819.91
2018-01-08T09:19:22.227Z,95958.59
2018-01-08T09:20:59.226Z,96003.52
2018-01-08T09:22:37.413Z,95966.41
2018-01-08T09:24:14.893Z,95892.73
2018-01-08T09:25:51.707Z,95833.27
2018-01-08T09:27:28.934Z,95737.20
2018-01-08T09:29:06.164Z,95781.91
2018-01-08T09:30:46.976Z,95835.85
2018-01-08T09:32:25.659Z,95831.48
2018-01-08T09:34:02.562Z,95900.92
2018-01-08T09:35:40.626Z,95862.13
2018-01-08T09:37:18.450Z,95942.66
2018-01-08T09:38:54.773Z,95975.86
2018-01-08T09:40:31.110Z,95949.61
2018-01-08T09:42:08.408Z,95849.66
2018-01-08T09:43:45.397Z,95843.98
2018-01-08T09:45:22.245Z,95863.06
2018-01-08T09:46:59.206Z,95969.84
2018-01-08T09:48:36.163Z,95898.30
2018-01-08T09:50:13.422Z,95875.14
2018-01-08T09:51:50.082Z,96006.16
2018-01-08T09:53:26.490Z,95911.27
2018-01-08T09:55:04.832Z,95834.54
2018-01-08T09:56:43.386Z,95894.36
2018-01-08T09:58:20.195Z,95928.91
2018-01-08T09:59:57.068Z,95945.70
2018-01-08T10:01:34.467Z,95918.48
2018-01-08T10:03:27.422Z,95907.80
2018-01-08T10:05:26.214Z,95928.02
2018-01-08T10:07:25.386Z,95939.13
2018-01-08T10:09:24.174Z,95902.58
2018-01-08T10:11:22.914Z,95876.67
2018-01-08T10:13:22.629Z,95944.81
2018-01-08T10:15:21.630Z,95910.80
2018-01-08T10:17:20.249Z,95835.38
2018-01-08T10:19:16.971Z,95933.66
2018-01-08T10:20:53.697Z,95996.66
2018-01-08T10:22:30.214Z,95948.30
2018-01-08T10:24:06.575Z,95984.56
2018-01-08T10:25:44.017Z,95944.44
2018-01-08T10:27:20.408Z,95985.45
2018-01-08T10:28:57.571Z,95995.34
2018-01-08T10:30:34.678Z,96068.74
2018-01-08T10:32:12.075Z,95986.64
2018-01-08T10:33:49.275Z,96014.38
2018-01-08T10:35:26.409Z,95928.45
2018-01-08T10:37:03.718Z,95888.03
2018-01-08T10:38:42.002Z,95899.69
2018-01-08T10:40:19.321Z,96033.70
2018-01-08T10:42:02.012Z,96129.23
2018-01-08T10:43:43.469Z,96090.31
2018-01-08T10:45:25.766Z,96157.27
2018-01-08T10:47:07.674Z,96070.91
2018-01-08T10:48:49.391Z,96107.97
2018-01-08T10:50:31.042Z,96073.07
2018-01-08T10:52:10.071Z,96060.09
2018-01-08T10:53:47.328Z,96068.70
2018-01-08T10:55:24.392Z,96126.60
2018-01-08T10:57:01.635Z,96067.85
2018-01-08T10:58:38.536Z,96108.39
2018-01-08T11:00:16.941Z,96133.06
2018-01-08T11:01:58.014Z,96116.67
2018-01-08T11:04:06.985Z,96094.59
2018-01-08T11:05:44.593Z,96192.99
2018-01-08T11:07:22.235Z,96190.91
2018-01-08T11:09:00.029Z,96202.08
2018-01-08T11:10:38.078Z,96233.73
2018-01-08T11:12:15.111Z,96277.33
2018-01-08T11:13:52.180Z,96190.56
2018-01-08T11:15:29.896Z,96169.79
2018-01-08T11:17:07.375Z,96144.31
2018-01-08T11:18:44.483Z,96177.48
2018-01-08T11:20:21.625Z,96221.06
2018-01-08T11:21:58.631Z,96124.02
2018-01-08T11:23:35.713Z,96127.49
2018-01-08T11:25:13.364Z,96169.36
2018-01-08T11:26:50.667Z,96375.44
2018-01-08T11:28:28.466Z,96388.33
2018-01-08T11:30:08.497Z,96329.18
2018-01-08T11:31:45.249Z,96267.81
2018-01-08T11:33:22.228Z,96276.44
2018-01-08T11:35:00.042Z,96241.03
2018-01-08T11:36:37.154Z,96176.17
2018-01-08T11:38:16.039Z,96196.55
2018-01-08T11:39:53.210Z,96286.88
2018-01-08T11:41:30.586Z,96280.00
2018-01-08T11:43:13.873Z,96213.88
2018-01-08T11:44:52.426Z,96291.48
2018-01-08T11:46:29.820Z,96246.61
2018-01-08T11:48:07.100Z,96223.32
2018-01-08T11:49:44.995Z,96176.68
2018-01-08T11:51:21.613Z,96194.38
2018-01-08T11:52:58.106Z,96267.42
2018-01-08T11:54:35.051Z,96296.37
2018-01-08T11:56:12.691Z,96451.16
2018-01-08T11:57:49.835Z,96396.23
2018-01-08T11:59:27.842Z,96470.17
2018-01-08T12:01:09.923Z,96487.45
2018-01-08T12:02:47.735Z,96456.27
2018-01-08T12:04:25.809Z,96355.47
2018-01-08T12:06:03.094Z,96381.02
2018-01-08T12:07:40.328Z,96331.30
2018-01-08T12:09:18.102Z,96309.33
2018-01-08T12:10:56.231Z,96311.84
2018-01-08T12:12:33.724Z,96394.54
2018-01-08T12:14:10.993Z,96536.73
2018-01-08T12:15:48.971Z,96660.19
2018-01-08T12:17:25.720Z,96547.55
2018-01-08T12:19:03.139Z,96492.10
2018-01-08T12:20:48.771Z,96575.31
2018-01-08T12:22:25.680Z,96736.89
2018-01-08T12:24:02.359Z,96811.25
2018-01-08T12:25:39.005Z,96751.94
2018-01-08T12:27:15.658Z,96578.67
2018-01-08T12:28:52.604Z,96454.14
2018-01-08T12:30:29.732Z,96401.04
2018-01-08T12:32:07.482Z,96397.94
2018-01-08T12:33:44.074Z,96358.99
2018-01-08T12:35:23.237Z,96378.50
2018-01-08T12:37:00.028Z,96336.50
2018-01-08T12:38:36.966Z,96335.66
2018-01-08T12:40:13.852Z,96472.27
2018-01-08T12:41:50.997Z,96537.62
2018-01-08T12:43:28.785Z,96599.97
2018-01-08T12:45:06.917Z,96626.80
2018-01-08T12:46:43.693Z,96509.58
2018-01-08T12:48:21.216Z,96527.67
2018-01-08T12:49:57.946Z,96604.81
2018-01-08T12:51:34.413Z,96620.33
2018-01-08T12:53:12.128Z,96587.83
2018-01-08T12:54:50.594Z,96545.89
2018-01-08T12:56:27.507Z,96533.76
2018-01-08T12:58:05.511Z,96584.73
2018-01-08T12:59:41.949Z,96699.13
2018-01-08T13:01:19.822Z,96697.00
2018-01-08T13:02:57.212Z,96805.77
2018-01-08T13:04:34.413Z,96937.89
2018-01-08T13:06:10.939Z,96950.48
2018-01-08T13:07:48.075Z,96863.78
2018-01-08T13:09:25.146Z,96751.12
2018-01-08T13:11:02.243Z,96775.50
2018-01-08T13:12:39.228Z,96789.27
2018-01-08T13:14:15.634Z,96817.06
2018-01-08T13:15:52.735Z,96855.16
2018-01-08T13:17:29.734Z,96955.84
2018-01-08T13:19:06.890Z,96920.22
2018-01-08T13:20:43.794Z,96846.89
2018-01-08T13:22:21.674Z,96793.66
2018-01-08T13:23:58.674Z,96882.92
2018-01-08T13:25:35.650Z,96895.94
2018-01-08T13:27:13.978Z,96885.99
2018-01-08T13:28:50.548Z,96871.20
2018-01-08T13:30:27.237Z,96814.47
2018-01-08T13:32:05.855Z,96797.63
2018-01-08T13:33:43.771Z,96909.41
2018-01-08T13:35:26.209Z,97013.97
2018-01-08T13:37:04.576Z,96902.00
2018-01-08T13:38:41.334Z,96908.02
2018-01-08T13:40:19.647Z,96942.75
2018-01-08T13:41:56.819Z,96994.93
2018-01-08T13:43:34.724Z,97035.31
2018-01-08T13:45:14.969Z,97027.11
2018-01-08T13:46:52.874Z,96932.84
2018-01-08T13:48:30.085Z,97008.38
2018-01-08T13:50:07.497Z,96954.45
2018-01-08T13:51:46.216Z,96914.16
2018-01-08T13:53:24.452Z,96901.61
2018-01-08T13:55:03.276Z,97098.16
2018-01-08T13:56:40.662Z,97053.52
2018-01-08T13:58:17.682Z,96977.05
2018-01-08T13:59:55.293Z,96951.91
2018-01-08T14:01:32.209Z,97031.35
2018-01-08T14:03:09.613Z,97013.16
2018-01-08T14:04:47.836Z,96946.25
2018-01-08T14:06:25.615Z,96967.97
2018-01-08T14:08:02.378Z,97086.52
2018-01-08T14:09:41.062Z,97196.06
2018-01-08T14:11:20.211Z,97158.23
2018-01-08T14:12:57.876Z,97121.68
2018-01-08T14:14:34.262Z,97136.53
2018-01-08T14:16:11.004Z,97087.84
2018-01-08T14:17:48.084Z,97127.36
2018-01-08T14:19:25.630Z,97181.23
2018-01-08T14:21:02.276Z,97241.20
2018-01-08T14:22:38.965Z,97214.73
2018-01-08T14:25:57.027Z,97250.34
2018-01-08T14:27:33.852Z,97231.66
2018-01-08T14:29:10.751Z,97394.70
2018-01-08T14:30:47.777Z,97510.95
2018-01-08T14:34:10.218Z,97714.83
2018-01-08T14:35:47.808Z,97619.80
2018-01-08T14:37:25.079Z,97662.20
2018-01-08T14:39:01.809Z,97716.15
2018-01-08T14:40:38.736Z,97730.98
2018-01-08T14:42:15.043Z,97724.45
2018-01-08T14:43:52.542Z,97483.05
2018-01-08T14:45:29.927Z,97329.97
2018-01-08T14:47:06.236Z,97321.71
2018-01-08T14:48:43.116Z,97471.32
2018-01-08T14:50:20.155Z,97530.14
2018-01-08T14:51:57.067Z,97640.75
2018-01-08T14:53:35.139Z,97456.55
2018-01-08T14:55:12.797Z,97370.86
2018-01-08T14:56:50.182Z,97510.14
2018-01-08T14:58:26.553Z,97413.45
2018-01-08T15:00:03.673Z,97517.97
2018-01-08T15:01:41.785Z,97559.77
2018-01-08T15:03:18.702Z,97596.78
2018-01-08T15:04:55.576Z,97641.15
2018-01-08T15:06:32.957Z,97612.14
2018-01-08T15:08:09.882Z,97628.61
2018-01-08T15:09:46.357Z,97619.41
2018-01-08T15:11:22.878Z,97470.49
2018-01-08T15:13:00.022Z,97373.86
2018-01-08T15:14:38.674Z,97529.71
2018-01-08T15:16:15.758Z,97556.27
2018-01-08T15:17:53.122Z,97323.89
2018-01-08T15:19:30.652Z,97333.94
2018-01-08T15:21:08.104Z,97343.48
2018-01-08T15:22:44.984Z,97274.80
2018-01-08T15:24:22.505Z,97282.22
2018-01-08T15:26:00.210Z,97427.78
2018-01-08T15:27:39.223Z,97485.77
2018-01-08T15:29:16.413Z,97564.14
2018-01-08T15:30:53.519Z,97609.46
2018-01-08T15:32:31.400Z,97593.31
2018-01-08T15:34:09.140Z,97552.76
2018-01-08T15:35:46.157Z,97529.67
2018-01-08T15:37:23.289Z,97333.08
2018-01-08T15:39:00.501Z,97309.59
2018-01-08T15:40:38.501Z,97237.89
2018-01-08T15:42:15.895Z,97159.21
2018-01-08T15:43:54.209Z,97216.95
2018-01-08T15:45:32.264Z,97259.10
2018-01-08T15:47:09.891Z,97274.41
2018-01-08T15:48:55.456Z,97319.61
2018-01-08T15:50:33.372Z,97373.43
2018-01-08T15:52:10.497Z,97366.53
2018-01-08T15:53:48.020Z,97408.69
2018-01-08T15:55:24.569Z,97456.08
2018-01-08T15:57:01.619Z,97399.53
2018-01-08T15:58:39.711Z,97441.81
2018-01-08T16:00:20.602Z,97446.92
2018-01-08T16:02:01.527Z,97353.91
2018-01-08T16:03:39.088Z,97300.91
2018-01-08T16:05:15.623Z,97234.81
2018-01-08T16:06:52.364Z,97308.73
2018-01-08T16:08:29.470Z,97320.81
2018-01-08T16:10:07.749Z,97381.23
2018-01-08T16:11:45.512Z,97484.41
2018-01-08T16:13:22.927Z,97448.25
2018-01-08T16:15:00.969Z,97444.34
2018-01-08T16:16:39.721Z,97456.55
2018-01-08T16:18:18.310Z,97469.20
2018-01-08T16:20:00.556Z,97353.02
2018-01-08T16:21:40.705Z,97313.84
2018-01-08T16:23:23.145Z,97402.18
2018-01-08T16:25:01.306Z,97378.69
2018-01-08T16:26:41.046Z,97266.86
2018-01-08T16:28:18.686Z,97023.19
2018-01-08T16:29:55.856Z,96987.52
2018-01-08T16:31:34.158Z,97009.27
2018-01-08T16:33:14.315Z,96993.64
2018-01-08T16:34:51.795Z,96829.27
2018-01-08T16:36:28.216Z,96831.55
2018-01-08T16:38:07.313Z,96719.70
2018-01-08T16:39:45.402Z,96665.47
2018-01-08T16:41:22.464Z,96655.58
2018-01-08T16:43:00.138Z,96670.39
2018-01-08T16:44:37.778Z,96645.30
2018-01-08T16:46:15.192Z,96706.66
2018-01-08T16:47:53.084Z,96624.83
2018-01-08T16:49:31.362Z,96487.53
2018-01-08T16:51:10.176Z,96353.92
2018-01-08T16:52:46.963Z,96268.81
2018-01-08T16:54:25.384Z,96232.07
2018-01-08T16:56:05.311Z,96203.17
2018-01-08T16:57:44.342Z,96195.83
2018-01-08T16:59:23.018Z,96223.14
2018-01-08T17:01:01.044Z,96180.63
2018-01-08T17:02:39.770Z,96182.87
2018-01-08T17:04:18.885Z,96241.63
2018-01-08T17:05:56.685Z,96175.44
2018-01-08T17:07:33.839Z,96143.64
2018-01-08T17:09:11.741Z,96322.30
2018-01-08T17:10:49.799Z,96299.47
2018-01-08T17:12:27.973Z,96321.02
2018-01-08T17:14:05.204Z,96309.80
2018-01-08T17:15:43.819Z,96322.34
2018-01-08T17:17:22.617Z,96317.61
2018-01-08T17:19:00.355Z,96478.94
2018-01-08T17:20:37.164Z,96475.45
2018-01-08T17:22:15.291Z,96471.53
2018-01-08T17:23:55.929Z,96496.59
2018-01-08T17:25:34.825Z,96418.31
2018-01-08T17:27:17.448Z,96280.52
2018-01-08T17:28:57.161Z,96251.06
2018-01-08T17:30:37.244Z,96280.00
2018-01-08T17:32:16.828Z,96205.27
2018-01-08T17:33:56.503Z,96195.74
2018-01-08T17:35:37.591Z,96171.11
2018-01-08T17:37:18.583Z,96169.45
2018-01-08T17:38:59.217Z,96144.40
2018-01-08T17:40:39.923Z,96131.91
2018-01-08T17:42:21.629Z,96119.34
2018-01-08T17:44:02.770Z,96103.42
2018-01-08T17:45:43.445Z,96043.88
2018-01-08T17:47:24.957Z,96016.34
2018-01-08T17:49:06.796Z,96100.37
2018-01-08T17:50:45.723Z,96112.42
2018-01-08T17:52:26.551Z,96163.50
2018-01-08T17:54:08.732Z,96215.24
2018-01-08T17:55:49.701Z,96350.40
2018-01-08T17:57:30.652Z,96256.12
2018-01-08T17:59:10.455Z,96255.78
2018-01-08T18:00:53.265Z,96247.07
2018-01-08T18:03:58.246Z,96306.82
2018-01-08T18:08:22.384Z,96325.73
2018-01-08T18:10:03.678Z,96315.45
2018-01-08T18:11:45.204Z,96209.98
2018-01-08T18:13:28.595Z,96169.75
2018-01-08T18:15:10.662Z,96177.64
2018-01-08T18:16:51.723Z,96118.03
2018-01-08T18:18:36.013Z,96078.76
2018-01-08T18:20:18.295Z,96100.28
2018-01-08T18:21:59.180Z,96126.22
2018-01-08T18:23:42.950Z,96168.60
2018-01-08T18:25:24.172Z,96191.92
2018-01-08T18:27:06.462Z,96134.03
2018-01-08T18:28:46.408Z,96145.71
2018-01-08T18:30:30.634Z,96058.52
2018-01-08T18:32:13.418Z,95986.47
2018-01-08T18:33:53.688Z,95947.49
2018-01-08T18:35:34.900Z,95914.83
2018-01-08T18:37:17.161Z,95897.23
2018-01-08T18:38:57.902Z,95954.06
2018-01-08T18:40:39.850Z,96013.16
2018-01-08T18:42:21.427Z,96059.78
2018-01-08T18:44:02.942Z,96085.59
2018-01-08T18:45:44.600Z,96134.03
2018-01-08T18:47:29.416Z,96141.77
2018-01-08T18:49:11.044Z,96024.41
2018-01-08T18:50:52.924Z,95998.44
2018-01-08T18:52:38.411Z,95919.58
2018-01-08T18:54:21.957Z,95954.88
2018-01-08T18:56:04.854Z,95956.19
2018-01-08T18:57:46.267Z,95929.47
2018-01-08T18:59:28.139Z,96054.52
2018-01-08T19:01:08.569Z,96051.94
2018-01-08T19:02:50.794Z,96050.19
2018-01-08T19:04:32.718Z,96043.33
2018-01-08T19:06:15.124Z,95987.61
2018-01-08T19:07:56.925Z,95995.03
2018-01-08T19:09:37.673Z,96021.31
2018-01-08T19:11:22.506Z,95963.56
2018-01-08T19:13:03.913Z,95959.20
2018-01-08T19:14:46.877Z,95953.09
2018-01-08T19:16:30.163Z,95931.12
2018-01-08T19:18:12.576Z,96007.05
2018-01-08T19:19:56.003Z,96017.05
2018-01-08T19:21:36.056Z,95984.73